Time;durP1;ratioP1;P1;durP2;ratioP2;P2;SDS_P1;SDS_P2;PMS_P1;PMS_P2;Temp;Humidity;BMP_temperature;BMP_pressure;BME280_temperature;BME280_humidity;BME280_pressure;Samples;Min_cycle;Max_cycle;Signal;HPM_P1;HPM_P2
2023/10/08 00:06:52;;;;;;;8.95;4.90;;;;;;;6.99;100.00;95153.19;5019518;23;20054;-80
2023/10/08 00:09:20;;;;;;;8.52;5.43;;;;;;;6.96;100.00;95143.19;4978539;28;20046;-79
2023/10/08 00:11:52;;;;;;;7.00;5.50;;;;;;;6.84;100.00;95139.97;4978611;28;20098;-81
2023/10/08 00:14:21;;;;;;;8.00;5.43;;;;;;;6.99;100.00;95153.19;4960577;29;20042;-79
2023/10/08 00:16:49;;;;;;;9.60;4.88;;;;;;;7.01;100.00;95142.72;4977770;28;20116;-83
2023/10/08 00:19:17;;;;;;;8.38;5.60;;;;;;;7.10;100.00;95140.09;5500345;23;20077;-81
2023/10/08 00:24:18;;;;;;;12.77;5.65;;;;;;;7.14;100.00;95125.16;4929851;26;20050;-82
2023/10/08 00:34:29;;;;;;;8.20;5.50;;;;;;;6.65;100.00;95170.13;5235476;23;20073;-81
2023/10/08 00:47:25;;;;;;;13.98;5.97;;;;;;;6.73;100.00;95129.88;5335786;23;20058;-82
2023/10/08 01:07:53;;;;;;;9.32;6.28;;;;;;;7.46;100.00;95122.91;5033902;23;20063;-79
2023/10/08 01:10:24;;;;;;;14.35;6.30;;;;;;;7.27;100.00;95116.13;4936156;29;20102;-80
2023/10/08 01:15:23;;;;;;;11.60;6.07;;;;;;;7.08;100.00;95111.13;4948465;29;20038;-78
2023/10/08 01:17:59;;;;;;;10.27;6.25;;;;;;;7.08;100.00;95112.88;5116329;23;20580;-81
2023/10/08 01:20:34;;;;;;;11.80;6.20;;;;;;;7.15;100.00;95165.44;4922645;29;20052;-81
2023/10/08 01:23:12;;;;;;;12.70;7.18;;;;;;;6.84;100.00;95108.28;4926396;29;20033;-81
2023/10/08 01:25:42;;;;;;;7.60;5.78;;;;;;;6.72;100.00;95112.81;4921967;29;20044;-82
2023/10/08 01:28:22;;;;;;;11.35;5.68;;;;;;;6.58;100.00;95115.06;4923569;29;20036;-80
2023/10/08 01:30:51;;;;;;;15.35;6.13;;;;;;;6.58;100.00;95092.69;4925808;29;20032;-79
2023/10/08 01:33:20;;;;;;;10.90;6.45;;;;;;;6.96;100.00;95166.34;4923193;29;20414;-79
2023/10/08 01:35:48;;;;;;;12.82;6.15;;;;;;;6.68;100.00;95090.06;4928806;29;20028;-80
2023/10/08 01:38:16;;;;;;;8.77;5.85;;;;;;;7.00;100.00;95138.56;4927123;29;20074;-79
2023/10/08 01:40:42;;;;;;;8.95;5.80;;;;;;;7.18;100.00;95160.00;4925242;29;20036;-79
2023/10/08 01:43:08;;;;;;;9.13;5.15;;;;;;;6.92;100.00;95103.22;4928718;29;20043;-80
2023/10/08 01:45:41;;;;;;;10.30;5.85;;;;;;;6.89;100.00;95096.59;4927854;29;20111;-81
2023/10/08 01:48:09;;;;;;;11.95;6.47;;;;;;;6.96;100.00;95108.91;4922432;29;20119;-80
2023/10/08 01:50:37;;;;;;;10.48;6.07;;;;;;;7.31;100.00;95147.56;4909289;29;20033;-81
2023/10/08 01:53:05;;;;;;;16.10;7.20;;;;;;;7.12;100.00;95127.09;4912170;29;20024;-81
2023/10/08 01:55:48;;;;;;;11.52;6.45;;;;;;;6.92;100.00;95113.53;4925529;29;20035;-81
2023/10/08 01:58:18;;;;;;;13.65;5.75;;;;;;;6.73;100.00;95111.88;4929454;29;20119;-79
2023/10/08 02:00:45;;;;;;;;;;;;;;;6.97;100.00;95173.09;4934385;29;20092;-81
2023/10/08 02:03:13;;;;;;;16.05;6.00;;;;;;;6.63;100.00;95105.97;4937244;29;19921;-79
2023/10/08 02:05:41;;;;;;;9.25;6.03;;;;;;;6.67;100.00;95109.88;4936576;29;20103;-81
2023/10/08 02:08:08;;;;;;;7.22;6.07;;;;;;;6.75;100.00;95104.81;4911479;29;20529;-79
2023/10/08 02:10:35;;;;;;;14.65;5.93;;;;;;;6.66;100.00;95117.72;4916826;29;20027;-78
2023/10/08 02:13:01;;;;;;;7.97;6.38;;;;;;;6.49;100.00;95106.41;4902892;29;20052;-78
2023/10/08 02:15:27;;;;;;;11.27;5.70;;;;;;;6.58;100.00;95110.69;4902150;29;20024;-78
2023/10/08 02:17:54;;;;;;;9.45;6.55;;;;;;;6.96;100.00;95137.22;4894176;29;20044;-82
2023/10/08 02:20:21;;;;;;;12.93;6.88;;;;;;;6.82;100.00;95105.03;4919565;29;20036;-81
2023/10/08 02:22:49;;;;;;;14.13;6.00;;;;;;;6.89;100.00;95088.06;4904533;29;20032;-81
2023/10/08 02:25:15;;;;;;;7.40;5.65;;;;;;;7.00;100.00;95087.84;4936598;29;20028;-82
2023/10/08 02:27:41;;;;;;;10.50;5.90;;;;;;;7.07;100.00;95088.06;4907284;29;20036;-82
2023/10/08 02:30:10;;;;;;;9.05;5.72;;;;;;;6.95;100.00;95082.34;4931196;29;20008;-82
2023/10/08 02:50:45;;;;;;;11.93;6.28;;;;;;;6.90;100.00;95087.13;5704958;23;20071;-81
2023/10/08 02:53:12;;;;;;;10.88;5.95;;;;;;;7.05;100.00;95069.41;4933919;29;20027;-81
2023/10/08 02:55:43;;;;;;;10.18;5.68;;;;;;;7.00;100.00;95080.13;4937586;29;20572;-82
2023/10/08 02:58:18;;;;;;;10.45;6.45;;;;;;;7.17;100.00;95119.72;4941426;29;20039;-81
2023/10/08 03:00:49;;;;;;;8.68;5.95;;;;;;;7.17;100.00;95125.69;4938890;29;20118;-81
2023/10/08 03:03:22;;;;;;;14.82;5.45;;;;;;;6.89;100.00;95088.88;4990521;23;20146;-81
2023/10/08 03:05:52;;;;;;;9.65;6.45;;;;;;;6.73;100.00;95090.47;4961227;29;20060;-81
2023/10/08 03:08:21;;;;;;;10.52;5.90;;;;;;;6.87;100.00;95090.78;4950719;29;20024;-80
2023/10/08 03:11:02;;;;;;;9.75;6.50;;;;;;;6.90;100.00;95118.81;4950998;29;20035;-81
2023/10/08 03:13:28;;;;;;;14.93;6.15;;;;;;;6.79;100.00;95124.16;4932622;29;20036;-81
2023/10/08 03:18:35;;;;;;;10.23;6.28;;;;;;;6.83;100.00;95135.78;4950392;29;20035;-80
2023/10/08 03:21:19;;;;;;;8.07;6.05;;;;;;;7.02;100.00;95131.50;4920870;29;20035;-79
2023/10/08 03:23:47;;;;;;;16.45;5.60;;;;;;;7.00;100.00;95138.56;4935924;29;20504;-80
2023/10/08 03:26:33;;;;;;;7.75;5.82;;;;;;;6.80;100.00;95087.19;4943913;29;20446;-79
2023/10/08 03:29:07;;;;;;;7.93;5.72;;;;;;;6.69;100.00;95086.56;4944613;28;20032;-80
2023/10/08 03:34:15;;;;;;;9.27;6.18;;;;;;;6.44;100.00;95105.22;4938510;29;20020;-79
2023/10/08 03:36:44;;;;;;;8.00;6.60;;;;;;;6.60;100.00;95116.53;4952684;29;20032;-81
2023/10/08 03:44:20;;;;;;;6.75;5.70;;;;;;;6.08;100.00;95102.50;5664511;23;20122;-80
2023/10/08 03:46:48;;;;;;;7.03;6.32;;;;;;;6.26;100.00;95100.81;4958491;28;20072;-81
2023/10/08 04:02:32;;;;;;;8.23;6.57;;;;;;;6.36;100.00;95081.03;5419740;23;20059;-81
2023/10/08 04:04:58;;;;;;;23.35;14.00;;;;;;;6.37;100.00;95102.41;4978972;28;20062;-81
2023/10/08 04:07:28;;;;;;;85.05;49.22;;;;;;;6.39;100.00;95128.78;4976353;28;20032;-79
2023/10/08 04:10:22;;;;;;;67.05;42.17;;;;;;;6.09;100.00;95100.75;4976750;28;20050;-80
2023/10/08 04:12:50;;;;;;;32.85;21.08;;;;;;;6.27;100.00;95105.03;4958614;29;20036;-82
2023/10/08 04:15:16;;;;;;;25.70;17.63;;;;;;;6.56;100.00;95148.63;4947453;29;20036;-78
2023/10/08 04:17:50;;;;;;;55.97;31.75;;;;;;;6.39;100.00;95104.84;4941387;29;20091;-81
2023/10/08 04:23:02;;;;;;;108.22;57.30;;;;;;;6.25;100.00;95077.84;4960639;29;20022;-81
2023/10/08 04:25:31;;;;;;;47.55;27.77;;;;;;;6.08;100.00;95071.66;4970488;28;20050;-82
2023/10/08 04:28:00;;;;;;;19.92;14.10;;;;;;;6.20;100.00;95096.25;4961800;29;20035;-82
2023/10/08 04:30:36;;;;;;;17.30;13.77;;;;;;;6.09;100.00;95080.19;4958990;29;20019;-80
2023/10/08 04:33:12;;;;;;;21.35;13.77;;;;;;;6.39;100.00;95095.34;4956353;29;20058;-80
2023/10/08 04:35:48;;;;;;;15.77;10.02;;;;;;;6.38;100.00;95078.31;4960213;29;20027;-80
2023/10/08 04:38:17;;;;;;;10.52;7.68;;;;;;;6.58;100.00;95121.00;4945451;29;20035;-80
2023/10/08 04:40:51;;;;;;;11.38;6.25;;;;;;;6.42;100.00;95077.09;4934317;29;20024;-81
2023/10/08 04:43:30;;;;;;;8.02;7.03;;;;;;;6.69;100.00;95110.53;4929738;29;20042;-78
2023/10/08 04:45:59;;;;;;;;;;;;;;;6.80;100.00;95137.84;4944334;29;20453;-77
2023/10/08 04:48:26;;;;;;;11.55;7.28;;;;;;;6.96;100.00;95126.91;4943644;29;19915;-81
2023/10/08 04:50:58;;;;;;;19.30;7.00;;;;;;;6.93;100.00;95109.19;4940670;29;20040;-78
2023/10/08 04:53:35;;;;;;;15.63;6.05;;;;;;;6.98;100.00;95137.88;4955674;29;20031;-78
2023/10/08 04:56:05;;;;;;;13.88;6.63;;;;;;;6.90;100.00;95134.25;4942981;29;20035;-80
2023/10/08 04:58:33;;;;;;;;;;;;;;;6.99;100.00;95139.50;4924480;29;20043;-80
2023/10/08 05:01:16;;;;;;;12.98;7.88;;;;;;;7.13;100.00;95144.13;4942469;29;19914;-78
2023/10/08 05:06:39;;;;;;;14.60;11.95;;;;;;;7.46;100.00;95140.13;4934151;29;20048;-79
2023/10/08 05:12:08;;;;;;;13.20;8.98;;;;;;;7.60;100.00;95126.75;4937039;29;20043;-79
2023/10/08 05:17:09;;;;;;;12.57;6.78;;;;;;;8.13;100.00;95121.47;4937225;29;20513;-80
2023/10/08 05:27:56;;;;;;;7.82;6.05;;;;;;;12.04;95.43;95104.31;4921462;29;20441;-80
2023/10/08 05:33:59;;;;;;;9.43;6.85;;;;;;;13.23;86.09;95096.34;4915574;29;20498;-79
2023/10/08 05:36:27;;;;;;;7.05;6.35;;;;;;;13.51;83.97;95096.47;4921735;29;20123;-80
2023/10/08 05:39:00;;;;;;;8.80;6.80;;;;;;;14.22;78.39;95098.09;4940653;29;20043;-79
2023/10/08 05:41:38;;;;;;;7.82;5.57;;;;;;;13.64;79.59;95096.59;4936751;29;20038;-79
2023/10/08 05:44:23;;;;;;;8.63;5.20;;;;;;;13.58;79.75;95108.53;4930660;29;20046;-79
2023/10/08 05:47:26;;;;;;;7.78;5.57;;;;;;;13.72;78.88;95102.47;4936874;29;20121;-79
2023/10/08 05:49:54;;;;;;;;;;;;;;;13.62;79.98;95107.19;4934288;29;20094;-79
2023/10/08 05:52:27;;;;;;;10.98;5.95;;;;;;;13.98;79.61;95112.31;4940412;29;19918;-80
2023/10/08 05:57:46;;;;;;;6.75;5.70;;;;;;;13.83;80.32;95113.41;4931268;29;20111;-80
2023/10/08 06:13:13;;;;;;;18.42;12.10;;;;;;;15.97;70.08;95106.09;4936101;29;20043;-81
2023/10/08 06:18:25;;;;;;;19.98;11.40;;;;;;;20.85;50.67;95105.28;4928270;29;20486;-79
2023/10/08 06:20:54;;;;;;;9.68;7.55;;;;;;;22.35;44.20;95093.44;4931773;29;20481;-82
2023/10/08 06:23:20;;;;;;;9.15;7.57;;;;;;;23.99;40.14;95096.13;4932952;29;20520;-79
2023/10/08 06:25:56;;;;;;;10.20;6.97;;;;;;;23.31;41.14;95080.81;4910642;29;20103;-81
2023/10/08 06:28:25;;;;;;;9.63;7.22;;;;;;;24.93;38.21;95096.38;4933126;29;20063;-82
2023/10/08 06:30:55;;;;;;;9.32;7.13;;;;;;;26.91;35.05;95088.63;4931163;29;20486;-80
2023/10/08 06:33:22;;;;;;;7.03;6.25;;;;;;;27.79;33.56;95091.53;4929429;29;20116;-79
2023/10/08 06:36:01;;;;;;;11.38;5.45;;;;;;;27.87;34.09;95098.94;4924180;29;20563;-79
2023/10/08 06:38:31;;;;;;;6.18;5.25;;;;;;;28.47;33.01;95095.13;4925438;29;20111;-79
2023/10/08 06:41:10;;;;;;;7.20;5.20;;;;;;;28.92;31.78;95101.97;4937274;29;20039;-79
2023/10/08 06:43:38;;;;;;;6.22;5.22;;;;;;;29.07;31.66;95101.81;4935445;29;20065;-79
2023/10/08 06:46:03;;;;;;;;;;;;;;;28.59;31.76;95098.22;4924467;29;20134;-78
2023/10/08 06:48:29;;;;;;;6.38;4.85;;;;;;;28.74;31.34;95099.97;4919729;29;19970;-80
2023/10/08 06:51:07;;;;;;;5.72;4.88;;;;;;;28.93;31.34;95106.19;4925599;29;20039;-79
2023/10/08 06:53:33;;;;;;;5.25;4.82;;;;;;;29.81;30.56;95109.25;4934926;29;20031;-82
2023/10/08 06:56:03;;;;;;;7.20;4.97;;;;;;;29.69;30.66;95111.53;4925738;29;20524;-79
2023/10/08 06:58:31;;;;;;;7.47;4.90;;;;;;;29.90;30.29;95109.41;4924585;29;20760;-81
2023/10/08 07:00:58;;;;;;;6.53;5.03;;;;;;;29.28;30.11;95099.75;4936676;29;20120;-81
2023/10/08 07:03:24;;;;;;;7.15;4.85;;;;;;;29.44;30.03;95097.72;4928717;29;20019;-80
2023/10/08 07:06:02;;;;;;;5.70;5.18;;;;;;;29.96;30.06;95094.91;4930987;29;20067;-80
2023/10/08 07:08:31;;;;;;;5.32;4.82;;;;;;;29.47;30.64;95100.59;4938135;29;20023;-80
2023/10/08 07:10:58;;;;;;;11.48;5.28;;;;;;;30.50;29.17;95101.63;4933524;29;20461;-80
2023/10/08 07:13:24;;;;;;;5.50;4.97;;;;;;;30.43;29.44;95104.69;4929010;29;20118;-79
2023/10/08 07:15:50;;;;;;;6.10;4.45;;;;;;;29.95;29.72;95096.00;4925732;28;20805;-79
2023/10/08 07:18:22;;;;;;;5.55;4.53;;;;;;;30.15;29.39;95094.94;4916897;29;20997;-78
2023/10/08 07:20:53;;;;;;;8.93;5.38;;;;;;;30.47;29.17;95100.31;4922859;29;20113;-79
2023/10/08 07:23:24;;;;;;;6.50;4.85;;;;;;;30.21;29.19;95097.22;4927042;29;20037;-79
2023/10/08 07:26:17;;;;;;;7.07;5.43;;;;;;;29.78;29.46;95098.34;4929747;28;20046;-80
2023/10/08 07:28:43;;;;;;;4.95;4.53;;;;;;;30.80;28.74;95088.53;4926513;29;20863;-83
2023/10/08 07:31:22;;;;;;;5.38;4.68;;;;;;;29.95;29.38;95081.84;4931867;29;20071;-80
2023/10/08 07:33:57;;;;;;;5.10;4.63;;;;;;;30.13;28.90;95073.03;4924965;29;20031;-79
2023/10/08 07:36:29;;;;;;;5.25;4.75;;;;;;;29.80;29.01;95074.78;4927864;29;20092;-80
2023/10/08 07:38:54;;;;;;;6.95;5.30;;;;;;;29.51;29.75;95066.13;4931434;29;20513;-80
2023/10/08 07:41:20;;;;;;;5.40;4.90;;;;;;;29.61;29.10;95060.63;4928392;29;20020;-85
2023/10/08 07:43:57;;;;;;;7.18;5.00;;;;;;;28.59;29.96;95062.75;4928214;29;20093;-79
2023/10/08 07:46:22;;;;;;;5.82;5.22;;;;;;;27.68;32.15;95063.38;4926354;29;20556;-79
2023/10/08 07:48:50;;;;;;;5.82;4.85;;;;;;;25.25;34.81;95065.25;4927328;29;20030;-81
2023/10/08 07:51:17;;;;;;;6.30;4.75;;;;;;;23.17;38.81;95064.50;4928685;29;20118;-81
2023/10/08 07:53:42;;;;;;;8.48;5.20;;;;;;;22.86;39.81;95062.53;4923154;29;20075;-82
2023/10/08 07:56:08;;;;;;;6.72;5.45;;;;;;;22.97;40.38;95061.59;4924508;29;20501;-79
2023/10/08 07:58:37;;;;;;;7.68;5.00;;;;;;;23.23;39.52;95068.81;4940897;28;20070;-79
2023/10/08 08:01:06;;;;;;;5.88;5.30;;;;;;;23.21;39.23;95062.19;4928322;28;20165;-80
2023/10/08 08:03:38;;;;;;;8.02;4.10;;;;;;;23.52;39.14;95054.38;4909565;29;20031;-80
2023/10/08 08:06:06;;;;;;;10.55;8.50;;;;;;;24.19;38.43;95053.16;4907702;29;20154;-80
2023/10/08 08:08:35;;;;;;;6.82;6.15;;;;;;;26.81;34.20;95048.75;4936349;29;20954;-79
2023/10/08 08:11:11;;;;;;;11.63;6.85;;;;;;;28.43;32.00;95053.28;4933901;29;20556;-79
2023/10/08 08:13:38;;;;;;;4.75;4.25;;;;;;;29.12;30.52;95047.59;4936858;29;20046;-79
2023/10/08 08:16:16;;;;;;;6.18;4.70;;;;;;;28.99;30.22;95040.25;4922430;29;20068;-79
2023/10/08 08:18:42;;;;;;;7.38;4.57;;;;;;;29.51;30.03;95044.75;4943208;29;20035;-81
2023/10/08 08:21:14;;;;;;;6.20;5.43;;;;;;;29.85;29.83;95039.22;4932190;28;20024;-79
2023/10/08 08:23:41;;;;;;;5.95;5.13;;;;;;;29.16;29.90;95032.56;4936291;29;20131;-78
2023/10/08 08:26:11;;;;;;;5.27;4.63;;;;;;;24.43;35.40;95028.75;4913472;29;20035;-80
2023/10/08 08:28:37;;;;;;;5.47;4.40;;;;;;;27.38;32.61;95019.06;4933991;29;20023;-79
2023/10/08 08:31:04;;;;;;;12.02;4.63;;;;;;;28.75;30.39;95018.91;4938822;29;20054;-80
2023/10/08 08:33:52;;;;;;;6.65;4.72;;;;;;;28.77;29.89;95024.72;4927587;29;20123;-78
2023/10/08 08:36:16;;;;;;;9.95;5.07;;;;;;;28.42;30.22;95015.19;4927701;29;20046;-83
2023/10/08 08:38:43;;;;;;;5.97;4.32;;;;;;;27.89;30.13;95019.59;4923417;29;20027;-81
2023/10/08 08:41:12;;;;;;;11.80;4.82;;;;;;;28.12;29.93;95004.78;4925693;29;20062;-81
2023/10/08 08:43:44;;;;;;;5.50;4.20;;;;;;;27.92;30.27;95008.38;4927613;29;20099;-79
2023/10/08 08:46:12;;;;;;;4.70;4.30;;;;;;;27.54;30.84;95004.63;4922661;29;20119;-80
2023/10/08 08:48:40;;;;;;;7.15;4.47;;;;;;;27.74;30.58;95004.47;4924274;29;20053;-81
2023/10/08 08:51:09;;;;;;;5.60;4.72;;;;;;;27.40;31.62;95008.91;4913264;29;20039;-80
2023/10/08 08:53:37;;;;;;;8.80;4.75;;;;;;;27.08;32.22;95011.19;4925811;29;20078;-80
2023/10/08 08:56:06;;;;;;;7.15;4.75;;;;;;;26.59;31.27;94990.56;4928970;29;20020;-80
2023/10/08 08:58:33;;;;;;;7.18;4.40;;;;;;;27.13;30.88;94996.00;4929337;29;20114;-81
2023/10/08 09:01:00;;;;;;;6.45;4.90;;;;;;;26.42;31.67;94987.44;4912928;29;20549;-77
2023/10/08 09:03:30;;;;;;;5.50;4.68;;;;;;;26.28;32.78;94998.88;4937762;29;20023;-86
2023/10/08 09:05:57;;;;;;;4.93;4.50;;;;;;;26.87;31.74;94999.06;4932346;28;20034;-80
2023/10/08 09:08:24;;;;;;;7.93;4.53;;;;;;;26.17;32.56;94998.88;4936510;28;20030;-78
2023/10/08 09:10:53;;;;;;;5.03;4.50;;;;;;;26.18;32.81;94994.34;4932202;29;20418;-79
2023/10/08 09:13:22;;;;;;;5.53;4.75;;;;;;;26.27;33.13;94989.28;4934748;29;20039;-81
2023/10/08 09:15:48;;;;;;;8.25;4.88;;;;;;;26.43;32.77;94996.19;4923597;29;20027;-79
2023/10/08 09:18:14;;;;;;;8.75;4.57;;;;;;;25.73;34.18;94981.84;4924470;29;20481;-86
2023/10/08 09:20:43;;;;;;;6.90;4.32;;;;;;;25.99;32.89;94978.13;4935330;28;20482;-78
2023/10/08 09:23:13;;;;;;;13.38;9.93;;;;;;;26.13;33.55;94983.72;4928528;29;20489;-79
2023/10/08 09:25:43;;;;;;;10.77;7.55;;;;;;;26.39;33.18;94976.53;4929173;29;20497;-79
2023/10/08 09:28:12;;;;;;;8.85;5.72;;;;;;;26.61;33.04;94982.34;4926475;29;20039;-81
2023/10/08 09:30:39;;;;;;;11.55;5.20;;;;;;;26.71;32.45;94979.66;4930790;28;20031;-78
2023/10/08 09:33:10;;;;;;;8.57;4.82;;;;;;;26.08;32.76;94971.22;4917063;29;20035;-79
2023/10/08 09:35:36;;;;;;;61.70;48.83;;;;;;;26.03;32.96;94973.91;4927704;29;20047;-82
2023/10/08 09:38:08;;;;;;;22.15;19.23;;;;;;;26.70;32.96;94970.88;4937587;29;20529;-79
2023/10/08 09:40:36;;;;;;;15.77;12.05;;;;;;;26.46;33.14;94961.91;4927826;29;20038;-82
2023/10/08 09:43:03;;;;;;;6.55;4.95;;;;;;;26.79;32.69;94962.34;4931947;29;20021;-80
2023/10/08 09:45:29;;;;;;;5.13;4.10;;;;;;;26.74;33.02;94952.53;4924930;29;20099;-80
2023/10/08 09:47:56;;;;;;;11.25;7.30;;;;;;;26.94;32.43;94944.50;4935053;29;20042;-80
2023/10/08 09:50:30;;;;;;;7.82;5.07;;;;;;;27.13;32.50;94945.47;4919763;29;20042;-79
2023/10/08 09:53:10;;;;;;;9.90;7.15;;;;;;;27.12;31.99;94937.75;4922155;29;20040;-80
2023/10/08 09:55:36;;;;;;;6.03;4.82;;;;;;;27.17;31.79;94935.06;4922016;29;20462;-81
2023/10/08 09:58:03;;;;;;;8.23;7.40;;;;;;;27.40;31.59;94928.28;4935840;29;20082;-79
2023/10/08 10:00:33;;;;;;;9.27;6.10;;;;;;;27.29;31.69;94932.09;4929743;29;20422;-81
2023/10/08 10:03:02;;;;;;;6.47;5.00;;;;;;;27.21;31.82;94926.28;4926043;29;20577;-79
2023/10/08 10:05:35;;;;;;;10.07;5.15;;;;;;;27.24;31.83;94925.72;4929911;29;20027;-78
2023/10/08 10:08:05;;;;;;;7.95;4.72;;;;;;;27.28;31.50;94919.84;4930964;29;20031;-79
2023/10/08 10:10:33;;;;;;;15.70;9.63;;;;;;;26.90;29.77;94918.72;4928979;29;20030;-80
2023/10/08 10:13:07;;;;;;;15.73;5.32;;;;;;;26.89;29.67;94909.16;4926476;29;20122;-79
2023/10/08 10:15:34;;;;;;;17.33;5.53;;;;;;;26.97;29.91;94903.28;4924231;29;20117;-78
2023/10/08 10:18:13;;;;;;;28.42;6.25;;;;;;;26.87;29.98;94898.81;4929153;29;20039;-81
2023/10/08 10:20:41;;;;;;;25.17;5.53;;;;;;;27.08;30.37;94905.59;4938624;29;20043;-78
2023/10/08 10:23:37;;;;;;;19.77;10.60;;;;;;;27.09;30.59;94901.06;4910016;29;20411;-80
2023/10/08 10:26:03;;;;;;;15.23;5.88;;;;;;;27.02;30.80;94895.25;4923183;29;20042;-83
2023/10/08 10:28:29;;;;;;;19.40;5.30;;;;;;;26.52;31.19;94897.03;4938522;29;20031;-78
2023/10/08 10:30:56;;;;;;;6.28;4.68;;;;;;;26.44;30.79;94889.63;4930900;29;21009;-80
2023/10/08 10:33:32;;;;;;;9.02;5.65;;;;;;;26.39;31.49;94887.00;4928645;29;20019;-87
2023/10/08 10:36:00;;;;;;;10.10;5.45;;;;;;;26.02;31.52;94886.50;4931806;29;20116;-80
2023/10/08 10:38:26;;;;;;;7.60;4.40;;;;;;;26.17;31.73;94878.53;4915626;29;20067;-84
2023/10/08 10:40:58;;;;;;;6.75;5.18;;;;;;;26.48;31.12;94869.44;4936860;29;20034;-82
2023/10/08 10:43:33;;;;;;;13.57;5.70;;;;;;;26.39;31.17;94876.38;4925923;29;20471;-87
2023/10/08 10:46:29;;;;;;;11.70;4.47;;;;;;;26.48;31.08;94858.81;4926565;29;20834;-89
2023/10/08 10:49:11;;;;;;;13.77;5.93;;;;;;;26.52;31.06;94859.81;4924749;29;20067;-85
2023/10/08 10:51:41;;;;;;;8.63;4.10;;;;;;;26.80;30.77;94857.59;4921967;29;20046;-84
2023/10/08 10:54:19;;;;;;;14.60;4.75;;;;;;;27.12;30.74;94864.09;4931643;29;20070;-83
2023/10/08 10:56:47;;;;;;;;;;;;;;;26.88;30.38;94860.50;4927453;29;20444;-86
2023/10/08 10:59:18;;;;;;;11.35;3.85;;;;;;;27.03;30.71;94843.66;4921535;29;19937;-90
2023/10/08 11:02:05;;;;;;;5.13;3.75;;;;;;;27.29;30.54;94839.75;4925311;29;20051;-88
2023/10/08 11:04:31;;;;;;;27.25;4.38;;;;;;;27.29;30.69;94845.09;4926390;29;20058;-88
2023/10/08 11:06:58;;;;;;;9.15;4.40;;;;;;;27.23;31.15;94843.50;4928197;29;20031;-84
2023/10/08 11:09:37;;;;;;;9.20;4.70;;;;;;;27.40;31.24;94838.59;4926181;29;20031;-80
2023/10/08 11:12:11;;;;;;;12.13;4.38;;;;;;;27.02;31.16;94836.75;4938045;29;20051;-81
2023/10/08 11:14:42;;;;;;;13.20;4.53;;;;;;;27.23;31.36;94830.19;4934135;29;20028;-81
2023/10/08 11:17:17;;;;;;;10.70;4.25;;;;;;;26.98;31.67;94835.69;4934674;28;20023;-82
2023/10/08 11:19:45;;;;;;;6.68;3.55;;;;;;;26.44;32.05;94833.84;4938926;29;20040;-84
2023/10/08 11:22:16;;;;;;;10.40;4.90;;;;;;;26.31;32.65;94823.78;4912535;29;20034;-84
2023/10/08 11:24:44;;;;;;;6.93;4.50;;;;;;;26.34;32.56;94819.78;4936307;28;20110;-82
2023/10/08 11:27:16;;;;;;;16.93;4.23;;;;;;;25.96;33.24;94819.34;4916157;29;20895;-81
2023/10/08 11:29:51;;;;;;;6.47;4.07;;;;;;;26.13;33.09;94813.75;4922770;29;20042;-82
2023/10/08 11:32:25;;;;;;;13.85;4.07;;;;;;;26.21;33.45;94823.81;4940508;29;20853;-79
2023/10/08 11:34:59;;;;;;;5.43;3.42;;;;;;;26.10;33.76;94809.75;4932760;28;20472;-87
2023/10/08 11:37:29;;;;;;;15.63;3.97;;;;;;;26.25;34.01;94805.47;4925239;29;20047;-79
2023/10/08 11:39:58;;;;;;;12.55;4.03;;;;;;;26.12;33.26;94806.81;4936933;29;20536;-87
2023/10/08 11:47:44;;;;;;;19.90;3.90;;;;;;;26.09;33.56;94802.06;4929839;29;20034;-83
2023/10/08 11:50:10;;;;;;;30.40;5.15;;;;;;;26.12;33.43;94801.53;4925611;29;20046;-88
2023/10/08 11:52:41;;;;;;;14.63;4.20;;;;;;;25.88;34.00;94784.63;4927565;29;20032;-84
2023/10/08 11:55:18;;;;;;;10.23;4.18;;;;;;;25.88;34.62;94784.63;4928512;29;20400;-87
2023/10/08 11:57:49;;;;;;;17.23;4.30;;;;;;;25.87;34.48;94781.16;4926490;29;20114;-88
2023/10/08 12:00:21;;;;;;;11.57;4.22;;;;;;;25.46;34.44;94766.34;4916705;29;20070;-89
2023/10/08 12:02:47;;;;;;;7.57;4.00;;;;;;;25.64;34.72;94787.03;4936936;29;20449;-82
2023/10/08 12:05:19;;;;;;;7.68;3.92;;;;;;;25.73;33.94;94782.78;4924848;29;20028;-83
2023/10/08 12:07:48;;;;;;;6.50;3.38;;;;;;;25.50;35.22;94791.31;4932262;29;20027;-83
2023/10/08 12:10:16;;;;;;;10.52;3.83;;;;;;;25.35;35.11;94780.69;4929776;29;20042;-85
2023/10/08 12:12:45;;;;;;;16.30;5.18;;;;;;;25.36;35.09;94783.09;4942186;29;20038;-79
2023/10/08 12:15:12;;;;;;;;;;;;;;;25.32;34.97;94782.00;4914919;29;20074;-86
2023/10/08 12:17:39;;;;;;;9.02;3.95;;;;;;;25.37;34.98;94779.34;4930275;29;19922;-81
2023/10/08 12:20:22;;;;;;;18.10;5.13;;;;;;;25.54;34.56;94769.28;4928198;29;20540;-79
2023/10/08 12:22:51;;;;;;;11.65;3.47;;;;;;;26.09;34.37;94775.50;4923983;29;20039;-86
2023/10/08 12:25:17;;;;;;;8.85;4.05;;;;;;;25.90;34.67;94774.50;4923667;29;20137;-85
2023/10/08 12:27:43;;;;;;;7.32;3.53;;;;;;;25.75;34.76;94769.25;4924080;29;20743;-85
2023/10/08 12:30:10;;;;;;;13.80;4.38;;;;;;;25.79;34.68;94764.97;4925057;29;20035;-82
2023/10/08 12:32:42;;;;;;;12.52;3.60;;;;;;;25.81;34.99;94763.66;4935897;29;20019;-83
2023/10/08 12:35:12;;;;;;;12.45;4.47;;;;;;;25.91;34.76;94765.50;4935452;29;20516;-87
2023/10/08 12:37:39;;;;;;;20.65;4.28;;;;;;;26.00;34.62;94756.69;4937470;29;20035;-89
2023/10/08 12:40:12;;;;;;;16.90;4.10;;;;;;;26.19;34.43;94765.69;4919395;29;20122;-84
2023/10/08 12:42:44;;;;;;;11.25;4.32;;;;;;;26.53;34.96;94764.97;4920286;29;20421;-90
2023/10/08 12:45:12;;;;;;;18.77;4.18;;;;;;;26.18;34.99;94768.59;4926012;29;20118;-85
2023/10/08 12:47:38;;;;;;;26.92;4.55;;;;;;;25.59;35.81;94761.31;4908936;29;20039;-84
2023/10/08 12:50:07;;;;;;;41.00;5.38;;;;;;;25.35;36.62;94760.25;4915344;29;20086;-88
2023/10/08 12:52:37;;;;;;;;;;;;;;;25.16;37.12;94759.22;4921724;29;20518;-85
2023/10/08 12:55:06;;;;;;;21.48;4.93;;;;;;;25.35;36.63;94762.13;4933871;29;20388;-88
2023/10/08 12:57:34;;;;;;;12.90;3.80;;;;;;;25.15;36.77;94728.44;4905969;28;20127;-86
2023/10/08 13:00:00;;;;;;;13.57;4.35;;;;;;;25.68;36.21;94745.66;4921793;29;20243;-85
2023/10/08 13:02:28;;;;;;;19.13;4.50;;;;;;;25.38;36.36;94749.13;4911610;29;20490;-83
2023/10/08 13:04:55;;;;;;;15.57;4.18;;;;;;;25.46;37.15;94751.22;4919831;29;20035;-83
2023/10/08 13:07:21;;;;;;;27.10;4.38;;;;;;;25.39;37.21;94748.06;4907493;29;20483;-87
2023/10/08 13:09:47;;;;;;;17.88;4.60;;;;;;;25.08;37.21;94746.47;4913517;29;20454;-86
2023/10/08 13:12:15;;;;;;;10.75;4.05;;;;;;;25.15;37.82;94754.97;4906980;29;20024;-88
2023/10/08 13:14:41;;;;;;;16.42;4.35;;;;;;;25.22;37.22;94747.53;4904333;29;20119;-89
2023/10/08 13:17:10;;;;;;;15.40;4.45;;;;;;;25.15;37.44;94750.47;4904040;29;20898;-83
2023/10/08 13:19:36;;;;;;;15.32;4.25;;;;;;;25.11;37.43;94743.28;4907384;29;20470;-82
2023/10/08 13:22:06;;;;;;;16.85;4.40;;;;;;;25.30;37.76;94735.59;4909374;29;20036;-82
2023/10/08 13:24:32;;;;;;;12.70;4.22;;;;;;;25.33;37.41;94745.69;4916157;29;20111;-85
2023/10/08 13:26:58;;;;;;;9.90;3.67;;;;;;;25.18;37.33;94738.53;4900210;29;20087;-83
2023/10/08 13:29:26;;;;;;;21.35;4.72;;;;;;;25.02;37.81;94732.44;4922982;29;20028;-88
2023/10/08 13:31:53;;;;;;;16.77;4.35;;;;;;;24.95;37.84;94726.59;4895575;29;20482;-85
2023/10/08 13:34:21;;;;;;;28.55;4.55;;;;;;;25.11;38.00;94724.72;4917076;29;20028;-82
2023/10/08 13:36:49;;;;;;;19.98;4.05;;;;;;;24.85;38.34;94733.78;4920999;29;20032;-78
2023/10/08 13:39:18;;;;;;;20.73;4.18;;;;;;;24.91;38.32;94730.88;4917309;29;20509;-88
2023/10/08 13:41:47;;;;;;;17.67;4.22;;;;;;;24.92;38.10;94734.28;4911778;29;20024;-80
2023/10/08 13:44:13;;;;;;;13.63;4.50;;;;;;;24.88;38.17;94728.75;4903118;29;20036;-87
2023/10/08 13:46:42;;;;;;;18.35;4.47;;;;;;;24.95;38.12;94728.44;4915548;29;20198;-81
2023/10/08 13:49:10;;;;;;;21.27;5.10;;;;;;;24.83;38.09;94738.53;4913053;29;20130;-86
2023/10/08 13:51:37;;;;;;;14.02;4.43;;;;;;;24.55;38.56;94740.59;4919539;29;20025;-84
2023/10/08 13:54:09;;;;;;;16.27;4.70;;;;;;;24.70;38.24;94739.00;4903731;29;20039;-82
2023/10/08 13:56:37;;;;;;;23.13;4.28;;;;;;;24.70;37.98;94731.06;4908802;29;20027;-81
2023/10/08 13:59:04;;;;;;;10.13;3.72;;;;;;;24.63;37.77;94729.47;4918929;29;20045;-85
2023/10/08 14:01:38;;;;;;;31.45;4.43;;;;;;;24.52;38.06;94735.81;4920556;29;20059;-80